createdAt,value
2016-06-29T00:00:12.951Z,0
2016-06-29T00:01:13.570Z,0
2016-06-29T00:02:13.591Z,0
2016-06-29T00:03:12.925Z,0
2016-06-29T00:04:13.546Z,0
2016-06-29T00:05:13.549Z,0
2016-06-29T00:06:14.167Z,0
2016-06-29T00:07:14.215Z,0
2016-06-29T00:08:14.641Z,0
2016-06-29T00:09:12.950Z,0
2016-06-29T00:10:13.897Z,0
2016-06-29T00:11:14.194Z,0
2016-06-29T00:12:12.977Z,0
2016-06-29T00:13:12.957Z,0
2016-06-29T00:14:13.588Z,0
2016-06-29T00:15:12.968Z,0
2016-06-29T00:16:14.215Z,0
2016-06-29T00:17:13.586Z,0
2016-06-29T00:18:13.612Z,0
2016-06-29T00:19:14.423Z,0
2016-06-29T00:20:13.636Z,0
2016-06-29T00:21:14.549Z,0
2016-06-29T00:22:13.614Z,0
2016-06-29T00:23:11.768Z,0
2016-06-29T00:24:13.622Z,0
2016-06-29T00:25:13.645Z,0
2016-06-29T00:26:13.622Z,0
2016-06-29T00:27:13.027Z,0
2016-06-29T00:28:13.070Z,0
2016-06-29T00:29:12.417Z,0
2016-06-29T00:30:14.465Z,0
2016-06-29T00:31:14.267Z,0
2016-06-29T00:32:14.311Z,0
2016-06-29T00:33:14.311Z,0
2016-06-29T00:34:14.360Z,0
2016-06-29T00:35:13.677Z,0
2016-06-29T00:36:14.264Z,0
2016-06-29T00:37:13.676Z,0
2016-06-29T00:38:14.293Z,0
2016-06-29T00:39:13.667Z,0
2016-06-29T00:40:12.472Z,0
2016-06-29T00:41:13.686Z,0
2016-06-29T00:42:13.737Z,0
2016-06-29T00:43:14.699Z,0
2016-06-29T00:44:12.471Z,0
2016-06-29T00:45:13.089Z,0
2016-06-29T00:46:14.321Z,0
2016-06-29T00:47:13.702Z,0
2016-06-29T00:48:13.750Z,0
2016-06-29T00:49:13.727Z,0
2016-06-29T00:50:13.287Z,0
2016-06-29T00:51:14.350Z,0
2016-06-29T00:52:13.141Z,0
2016-06-29T00:53:12.485Z,0
2016-06-29T00:54:13.106Z,0
2016-06-29T00:55:13.759Z,0
2016-06-29T00:56:13.759Z,0
2016-06-29T00:57:13.153Z,0
2016-06-29T00:58:13.727Z,0
2016-06-29T00:59:13.139Z,0
2016-06-29T01:00:13.756Z,0
2016-06-29T01:01:13.651Z,0
2016-06-29T01:02:13.778Z,0
2016-06-29T01:03:14.027Z,0
2016-06-29T01:04:13.149Z,0
2016-06-29T01:05:13.191Z,0
2016-06-29T01:06:14.399Z,0
2016-06-29T01:07:13.160Z,0
2016-06-29T01:08:14.421Z,0
2016-06-29T01:09:13.162Z,0
2016-06-29T01:10:13.810Z,0
2016-06-29T01:11:13.810Z,0
2016-06-29T01:12:13.529Z,0
2016-06-29T01:13:13.199Z,0
2016-06-29T01:14:16.138Z,0
2016-06-29T01:15:14.045Z,0
2016-06-29T01:16:13.704Z,0
2016-06-29T01:17:13.814Z,0
2016-06-29T01:18:12.595Z,0
2016-06-29T01:19:13.267Z,0
2016-06-29T01:20:14.458Z,0
2016-06-29T01:21:13.254Z,0
2016-06-29T01:22:13.250Z,0
2016-06-29T01:23:13.851Z,0
2016-06-29T01:24:13.209Z,0
2016-06-29T01:25:14.893Z,0
2016-06-29T01:26:13.855Z,0
2016-06-29T01:27:13.824Z,0
2016-06-29T01:28:14.515Z,0
2016-06-29T01:29:13.860Z,0
2016-06-29T01:30:13.869Z,0
2016-06-29T01:31:13.247Z,0
2016-06-29T01:32:13.238Z,0
2016-06-29T01:33:13.867Z,0
2016-06-29T01:34:13.887Z,0
2016-06-29T01:35:13.883Z,0
2016-06-29T01:36:15.005Z,0
2016-06-29T01:37:14.503Z,0
2016-06-29T01:38:14.343Z,0
2016-06-29T01:39:12.686Z,0
2016-06-29T01:40:14.524Z,0
2016-06-29T01:41:14.539Z,0
2016-06-29T01:42:13.298Z,0
2016-06-29T01:43:13.285Z,0
2016-06-29T01:44:14.566Z,0
2016-06-29T01:45:13.403Z,0
2016-06-29T01:46:13.940Z,0
2016-06-29T01:47:15.359Z,0
2016-06-29T01:48:13.945Z,0
2016-06-29T01:49:14.859Z,0
2016-06-29T01:50:12.719Z,0
2016-06-29T01:51:13.952Z,0
2016-06-29T01:52:13.330Z,0
2016-06-29T01:53:12.727Z,0
2016-06-29T01:54:13.330Z,0
2016-06-29T01:55:14.575Z,0
2016-06-29T01:56:14.042Z,0
2016-06-29T01:57:13.975Z,0
2016-06-29T01:58:15.890Z,0
2016-06-29T01:59:13.961Z,0
2016-06-29T02:00:14.178Z,0
2016-06-29T02:01:14.573Z,0
2016-06-29T02:02:13.340Z,0
2016-06-29T02:03:14.579Z,0
2016-06-29T02:04:13.395Z,0
2016-06-29T02:05:14.595Z,0
2016-06-29T02:06:12.734Z,0
2016-06-29T02:07:13.229Z,0
2016-06-29T02:08:13.370Z,0
2016-06-29T02:09:13.407Z,0
2016-06-29T02:10:14.007Z,0
2016-06-29T02:11:14.595Z,0
2016-06-29T02:12:13.988Z,0
2016-06-29T02:13:14.014Z,0
2016-06-29T02:14:14.009Z,0
2016-06-29T02:15:14.015Z,0
2016-06-29T02:16:14.040Z,0
2016-06-29T02:17:13.437Z,0
2016-06-29T02:18:14.725Z,0
2016-06-29T02:19:14.035Z,0
2016-06-29T02:20:13.521Z,0
2016-06-29T02:21:14.680Z,0
2016-06-29T02:22:15.043Z,0
2016-06-29T02:23:14.047Z,0
2016-06-29T02:24:13.474Z,0
2016-06-29T02:25:14.662Z,0
2016-06-29T02:26:13.419Z,0
2016-06-29T02:27:12.822Z,0
2016-06-29T02:28:13.438Z,0
2016-06-29T02:29:15.633Z,0
2016-06-29T02:30:14.696Z,0
2016-06-29T02:31:14.112Z,0
2016-06-29T02:32:14.078Z,0
2016-06-29T02:33:15.033Z,0
2016-06-29T02:34:14.103Z,0
2016-06-29T02:35:14.083Z,0
2016-06-29T02:36:12.236Z,0
2016-06-29T02:37:14.703Z,0
2016-06-29T02:38:12.865Z,0
2016-06-29T02:39:14.071Z,0
2016-06-29T02:40:15.848Z,0
2016-06-29T02:41:14.103Z,0
2016-06-29T02:42:15.070Z,0
2016-06-29T02:43:13.507Z,0
2016-06-29T02:44:14.113Z,0
2016-06-29T02:45:12.863Z,0
2016-06-29T02:46:14.128Z,0
2016-06-29T02:47:14.141Z,0
2016-06-29T02:48:14.121Z,0
2016-06-29T02:49:13.489Z,0
2016-06-29T02:50:14.125Z,0
2016-06-29T02:51:13.520Z,0
2016-06-29T02:52:14.157Z,0
2016-06-29T02:53:15.227Z,0
2016-06-29T02:54:13.518Z,0
2016-06-29T02:55:13.686Z,0
2016-06-29T02:56:14.755Z,0
2016-06-29T02:57:14.787Z,0
2016-06-29T02:58:14.161Z,0
2016-06-29T02:59:13.530Z,0
2016-06-29T03:00:14.758Z,0
2016-06-29T03:01:13.560Z,0
2016-06-29T03:02:15.873Z,0
2016-06-29T03:03:14.797Z,0
2016-06-29T03:04:15.395Z,0
2016-06-29T03:05:12.944Z,0
2016-06-29T03:06:15.797Z,0
2016-06-29T03:07:14.830Z,0
2016-06-29T03:08:13.575Z,0
2016-06-29T03:09:14.818Z,0
2016-06-29T03:10:13.609Z,0
2016-06-29T03:11:12.956Z,0
2016-06-29T03:12:14.202Z,0
2016-06-29T03:13:15.172Z,0
2016-06-29T03:14:14.223Z,0
2016-06-29T03:15:14.514Z,0
2016-06-29T03:16:13.587Z,0
2016-06-29T03:17:14.265Z,0
2016-06-29T03:18:14.205Z,0
2016-06-29T03:19:13.603Z,0
2016-06-29T03:20:13.007Z,0
2016-06-29T03:21:14.319Z,0
2016-06-29T03:22:13.022Z,0
2016-06-29T03:23:14.241Z,0
2016-06-29T03:24:13.666Z,0
2016-06-29T03:25:14.290Z,0
2016-06-29T03:26:15.551Z,0
2016-06-29T03:27:14.253Z,0
2016-06-29T03:28:14.501Z,0
2016-06-29T03:29:14.865Z,0
2016-06-29T03:30:14.253Z,0
2016-06-29T03:31:14.257Z,0
2016-06-29T03:32:14.881Z,0
2016-06-29T03:33:13.637Z,0
2016-06-29T03:34:12.424Z,0
2016-06-29T03:35:13.662Z,5
2016-06-29T03:36:14.900Z,5
2016-06-29T03:37:13.060Z,5
2016-06-29T03:38:14.898Z,5
2016-06-29T03:39:13.078Z,5
2016-06-29T03:40:13.070Z,5
2016-06-29T03:41:13.672Z,5
2016-06-29T03:42:13.715Z,5
2016-06-29T03:43:13.657Z,5
2016-06-29T03:44:14.295Z,5
2016-06-29T03:45:13.065Z,5
2016-06-29T03:46:14.517Z,5
2016-06-29T03:47:13.732Z,5
2016-06-29T03:48:14.344Z,5
2016-06-29T03:49:14.938Z,5
2016-06-29T03:50:13.703Z,5
2016-06-29T03:51:13.106Z,5
2016-06-29T03:52:13.109Z,5
2016-06-29T03:53:14.341Z,5
2016-06-29T03:54:13.116Z,5
2016-06-29T03:55:14.361Z,10
2016-06-29T03:56:13.746Z,10
2016-06-29T03:57:14.039Z,10
2016-06-29T03:58:14.350Z,10
2016-06-29T03:59:15.730Z,10
2016-06-29T04:00:14.380Z,10
2016-06-29T04:01:13.150Z,10
2016-06-29T04:02:13.754Z,10
2016-06-29T04:03:14.365Z,10
2016-06-29T04:04:14.971Z,10
2016-06-29T04:05:14.373Z,10
2016-06-29T04:06:15.027Z,15
2016-06-29T04:07:14.390Z,20
2016-06-29T04:08:15.396Z,15
2016-06-29T04:09:13.155Z,15
2016-06-29T04:10:15.908Z,15
2016-06-29T04:11:13.779Z,15
2016-06-29T04:12:13.794Z,15
2016-06-29T04:13:15.080Z,20
2016-06-29T04:14:15.045Z,20
2016-06-29T04:15:14.382Z,20
2016-06-29T04:16:13.794Z,25
2016-06-29T04:17:14.399Z,25
2016-06-29T04:18:14.439Z,25
2016-06-29T04:19:15.273Z,25
2016-06-29T04:20:13.826Z,25
2016-06-29T04:21:16.309Z,30
2016-06-29T04:22:13.857Z,30
2016-06-29T04:23:14.432Z,30
2016-06-29T04:24:14.491Z,30
2016-06-29T04:25:15.094Z,35
2016-06-29T04:26:15.063Z,35
2016-06-29T04:27:13.827Z,30
2016-06-29T04:28:15.053Z,30
2016-06-29T04:29:13.868Z,30
2016-06-29T04:30:15.710Z,30
2016-06-29T04:31:13.839Z,35
2016-06-29T04:32:15.179Z,35
2016-06-29T04:33:14.461Z,40
2016-06-29T04:34:15.083Z,50
2016-06-29T04:35:13.848Z,50
2016-06-29T04:36:15.086Z,50
2016-06-29T04:37:14.487Z,55
2016-06-29T04:38:14.489Z,60
2016-06-29T04:39:14.482Z,55
2016-06-29T04:40:13.251Z,45
2016-06-29T04:41:15.155Z,25
2016-06-29T04:42:13.250Z,30
2016-06-29T04:43:14.983Z,25
2016-06-29T04:44:15.109Z,25
2016-06-29T04:45:15.144Z,20
2016-06-29T04:46:14.487Z,15
2016-06-29T04:47:15.175Z,15
2016-06-29T04:48:14.529Z,15
2016-06-29T04:49:14.517Z,15
2016-06-29T04:50:13.901Z,15
2016-06-29T04:51:14.551Z,25
2016-06-29T04:52:15.511Z,35
2016-06-29T04:53:14.547Z,35
2016-06-29T04:54:15.156Z,45
2016-06-29T04:55:13.307Z,65
2016-06-29T04:56:14.528Z,125
2016-06-29T04:57:13.921Z,260
2016-06-29T04:58:14.552Z,310
2016-06-29T04:59:13.955Z,405
2016-06-29T05:00:13.927Z,425
2016-06-29T05:01:14.545Z,435
2016-06-29T05:02:13.326Z,435
2016-06-29T05:03:16.388Z,470
2016-06-29T05:04:14.563Z,495
2016-06-29T05:05:15.297Z,490
2016-06-29T05:06:13.943Z,470
2016-06-29T05:07:14.584Z,505
2016-06-29T05:08:14.566Z,480
2016-06-29T05:09:29.420Z,460
2016-06-29T05:10:14.582Z,85
2016-06-29T05:11:13.986Z,90
2016-06-29T05:12:14.599Z,510
2016-06-29T05:13:13.978Z,500
2016-06-29T05:14:13.991Z,100
2016-06-29T05:15:14.619Z,55
2016-06-29T05:16:16.163Z,55
2016-06-29T05:17:15.264Z,70
2016-06-29T05:18:14.009Z,85
2016-06-29T05:19:14.021Z,60
2016-06-29T05:20:14.658Z,85
2016-06-29T05:21:14.034Z,65
2016-06-29T05:22:14.732Z,85
2016-06-29T05:23:15.375Z,255
2016-06-29T05:24:15.275Z,610
2016-06-29T05:25:16.122Z,715
2016-06-29T05:26:14.106Z,735
2016-06-29T05:27:16.203Z,720
2016-06-29T05:28:14.682Z,775
2016-06-29T05:29:14.073Z,825
2016-06-29T05:30:14.705Z,805
2016-06-29T05:31:14.788Z,835
2016-06-29T05:32:14.701Z,835
2016-06-29T05:33:14.697Z,875
2016-06-29T05:34:14.102Z,825
2016-06-29T05:35:12.850Z,815
2016-06-29T05:36:14.752Z,705
2016-06-29T05:37:14.092Z,75
2016-06-29T05:38:16.061Z,80
2016-06-29T05:39:14.734Z,115
2016-06-29T05:40:15.357Z,105
2016-06-29T05:41:14.743Z,90
2016-06-29T05:42:15.003Z,75
2016-06-29T05:43:15.376Z,85
2016-06-29T05:44:15.412Z,105
2016-06-29T05:45:15.411Z,85
2016-06-29T05:46:15.414Z,85
2016-06-29T05:47:14.834Z,80
2016-06-29T05:48:14.779Z,85
2016-06-29T05:49:14.791Z,100
2016-06-29T05:50:14.802Z,150
2016-06-29T05:51:14.783Z,485
2016-06-29T05:52:14.172Z,70
2016-06-29T05:53:14.799Z,50
2016-06-29T05:54:15.449Z,40
2016-06-29T05:55:14.208Z,50
2016-06-29T05:56:14.200Z,60
2016-06-29T05:57:14.837Z,55
2016-06-29T05:58:14.909Z,55
2016-06-29T05:59:14.833Z,50
2016-06-29T06:00:14.838Z,45
2016-06-29T06:01:14.219Z,45
2016-06-29T06:02:14.839Z,45
2016-06-29T06:03:14.828Z,45
2016-06-29T06:04:15.490Z,60
2016-06-29T06:05:14.858Z,65
2016-06-29T06:06:14.845Z,160
2016-06-29T06:07:14.857Z,100
2016-06-29T06:08:14.858Z,135
2016-06-29T06:09:15.366Z,100
2016-06-29T06:10:14.874Z,210
2016-06-29T06:11:14.920Z,260
2016-06-29T06:12:14.890Z,135
2016-06-29T06:13:15.500Z,115
2016-06-29T06:14:14.903Z,175
2016-06-29T06:15:14.287Z,185
2016-06-29T06:16:14.906Z,315
2016-06-29T06:17:14.288Z,185
2016-06-29T06:18:14.270Z,125
2016-06-29T06:19:14.282Z,105
2016-06-29T06:20:15.437Z,95
2016-06-29T06:21:13.673Z,125
2016-06-29T06:22:15.149Z,90
2016-06-29T06:23:15.589Z,105
2016-06-29T06:24:14.930Z,100
2016-06-29T06:25:15.546Z,110
2016-06-29T06:26:14.334Z,155
2016-06-29T06:27:14.928Z,240
2016-06-29T06:28:14.989Z,80
2016-06-29T06:29:14.948Z,95
2016-06-29T06:30:14.331Z,160
2016-06-29T06:31:14.336Z,80
2016-06-29T06:32:15.579Z,85
2016-06-29T06:33:15.445Z,55
2016-06-29T06:34:15.592Z,40
2016-06-29T06:35:13.736Z,35
2016-06-29T06:36:15.567Z,45
2016-06-29T06:37:14.330Z,45
2016-06-29T06:38:13.731Z,45
2016-06-29T06:39:14.390Z,45
2016-06-29T06:40:15.594Z,40
2016-06-29T06:41:14.979Z,40
2016-06-29T06:42:16.011Z,45
2016-06-29T06:43:15.609Z,355
2016-06-29T06:44:15.011Z,285
2016-06-29T06:45:15.608Z,320
2016-06-29T06:46:15.006Z,310
2016-06-29T06:47:15.618Z,165
2016-06-29T06:48:15.019Z,290
2016-06-29T06:49:14.413Z,725
2016-06-29T06:50:15.034Z,990
2016-06-29T06:51:15.652Z,785
2016-06-29T06:52:15.018Z,500
2016-06-29T06:53:16.383Z,385
2016-06-29T06:54:15.044Z,620
2016-06-29T06:55:15.318Z,910
2016-06-29T06:56:15.327Z,185
2016-06-29T06:57:15.671Z,315
2016-06-29T06:58:15.120Z,535
2016-06-29T06:59:15.040Z,1335
2016-06-29T07:00:15.052Z,1390
2016-06-29T07:01:15.688Z,265
2016-06-29T07:02:14.519Z,180
2016-06-29T07:03:14.457Z,105
2016-06-29T07:04:15.087Z,95
2016-06-29T07:05:14.465Z,145
2016-06-29T07:06:15.968Z,165
2016-06-29T07:07:15.107Z,605
2016-06-29T07:08:15.110Z,420
2016-06-29T07:09:14.491Z,570
2016-06-29T07:10:14.499Z,490
2016-06-29T07:11:14.503Z,255
2016-06-29T07:12:14.519Z,75
2016-06-29T07:13:15.311Z,75
2016-06-29T07:14:15.155Z,45
2016-06-29T07:15:16.914Z,45
2016-06-29T07:16:15.998Z,45
2016-06-29T07:17:16.374Z,30
2016-06-29T07:18:15.178Z,35
2016-06-29T07:19:15.791Z,35
2016-06-29T07:20:15.777Z,35
2016-06-29T07:21:14.538Z,165
2016-06-29T07:22:15.182Z,40
2016-06-29T07:23:15.853Z,35
2016-06-29T07:24:15.259Z,50
2016-06-29T07:25:14.568Z,50
2016-06-29T07:26:15.196Z,30
2016-06-29T07:27:15.808Z,30
2016-06-29T07:28:14.673Z,35
2016-06-29T07:29:15.220Z,35
2016-06-29T07:30:13.971Z,40
2016-06-29T07:31:15.188Z,45
2016-06-29T07:32:15.230Z,45
2016-06-29T07:33:15.207Z,50
2016-06-29T07:34:15.863Z,60
2016-06-29T07:35:16.119Z,60
2016-06-29T07:36:13.991Z,65
2016-06-29T07:37:15.128Z,65
2016-06-29T07:38:14.644Z,90
2016-06-29T07:39:14.687Z,75
2016-06-29T07:40:15.854Z,110
2016-06-29T07:41:14.098Z,215
2016-06-29T07:42:15.331Z,130
2016-06-29T07:43:14.645Z,145
2016-06-29T07:44:15.258Z,155
2016-06-29T07:45:14.027Z,230
2016-06-29T07:46:15.729Z,220
2016-06-29T07:47:15.870Z,225
2016-06-29T07:48:15.504Z,180
2016-06-29T07:49:14.472Z,175
2016-06-29T07:50:15.295Z,170
2016-06-29T07:51:14.668Z,195
2016-06-29T07:52:14.051Z,215
2016-06-29T07:53:15.296Z,210
2016-06-29T07:54:14.689Z,180
2016-06-29T07:55:14.048Z,180
2016-06-29T07:56:15.307Z,195
2016-06-29T07:57:16.627Z,200
2016-06-29T07:58:15.325Z,205
2016-06-29T07:59:15.358Z,180
2016-06-29T08:00:14.734Z,170
2016-06-29T08:01:15.031Z,160
2016-06-29T08:02:15.343Z,155
2016-06-29T08:03:15.355Z,145
2016-06-29T08:04:15.977Z,135
2016-06-29T08:05:15.372Z,150
2016-06-29T08:06:15.982Z,125
2016-06-29T08:07:14.721Z,120
2016-06-29T08:08:15.735Z,115
2016-06-29T08:09:14.146Z,115
2016-06-29T08:10:15.594Z,120
2016-06-29T08:11:15.355Z,115
2016-06-29T08:12:15.707Z,115
2016-06-29T08:13:15.414Z,120
2016-06-29T08:14:15.402Z,115
2016-06-29T08:15:14.769Z,115
2016-06-29T08:16:14.159Z,115
2016-06-29T08:17:14.789Z,120
2016-06-29T08:18:14.165Z,135
2016-06-29T08:19:15.404Z,125
2016-06-29T08:20:15.429Z,125
2016-06-29T08:21:15.706Z,130
2016-06-29T08:22:14.795Z,140
2016-06-29T08:23:15.497Z,190
2016-06-29T08:24:15.495Z,185
2016-06-29T08:25:15.494Z,170
2016-06-29T08:26:14.196Z,175
2016-06-29T08:27:14.822Z,160
2016-06-29T08:28:16.074Z,145
2016-06-29T08:29:15.481Z,150
2016-06-29T08:30:14.288Z,150
2016-06-29T08:31:15.465Z,135
2016-06-29T08:32:16.930Z,110
2016-06-29T08:33:14.863Z,105
2016-06-29T08:34:16.479Z,90
2016-06-29T08:35:15.484Z,70
2016-06-29T08:36:15.495Z,75
2016-06-29T08:37:16.123Z,75
2016-06-29T08:38:13.626Z,70
2016-06-29T08:39:15.511Z,65
2016-06-29T08:40:15.513Z,60
2016-06-29T08:41:16.126Z,55
2016-06-29T08:42:15.499Z,60
2016-06-29T08:43:14.623Z,60
2016-06-29T08:44:16.114Z,55
2016-06-29T08:45:16.472Z,60
2016-06-29T08:46:14.933Z,60
2016-06-29T08:47:14.911Z,70
2016-06-29T08:48:15.576Z,80
2016-06-29T08:49:15.526Z,80
2016-06-29T08:50:15.545Z,95
2016-06-29T08:51:15.550Z,90
2016-06-29T08:52:16.560Z,105
2016-06-29T08:53:14.966Z,120
2016-06-29T08:54:15.566Z,120
2016-06-29T08:55:15.801Z,125
2016-06-29T08:56:16.871Z,110
2016-06-29T08:57:14.335Z,95
2016-06-29T08:58:14.961Z,105
2016-06-29T08:59:15.579Z,105
2016-06-29T09:00:14.366Z,95
2016-06-29T09:01:15.596Z,105
2016-06-29T09:02:16.266Z,135
2016-06-29T09:03:17.059Z,165
2016-06-29T09:04:16.282Z,160
2016-06-29T09:05:16.057Z,160
2016-06-29T09:06:15.616Z,170
2016-06-29T09:07:15.625Z,180
2016-06-29T09:08:15.646Z,175
2016-06-29T09:09:15.643Z,145
2016-06-29T09:10:14.393Z,150
2016-06-29T09:11:15.614Z,145
2016-06-29T09:12:13.791Z,145
2016-06-29T09:13:15.019Z,145
2016-06-29T09:14:14.407Z,135
2016-06-29T09:15:14.409Z,135
2016-06-29T09:16:17.991Z,115
2016-06-29T09:17:15.670Z,135
2016-06-29T09:18:15.659Z,130
2016-06-29T09:19:15.071Z,150
2016-06-29T09:20:15.661Z,150
2016-06-29T09:21:15.062Z,150
2016-06-29T09:22:15.052Z,130
2016-06-29T09:23:15.066Z,120
2016-06-29T09:24:16.281Z,140
2016-06-29T09:25:16.677Z,165
2016-06-29T09:26:16.379Z,140
2016-06-29T09:27:17.451Z,130
2016-06-29T09:28:16.376Z,110
2016-06-29T09:29:15.707Z,100
2016-06-29T09:30:14.563Z,100
2016-06-29T09:31:15.406Z,105
2016-06-29T09:32:15.782Z,105
2016-06-29T09:33:15.725Z,100
2016-06-29T09:34:15.152Z,80
2016-06-29T09:35:15.147Z,110
2016-06-29T09:36:15.142Z,90
2016-06-29T09:37:15.736Z,90
2016-06-29T09:38:17.039Z,110
2016-06-29T09:39:17.868Z,125
2016-06-29T09:40:16.676Z,120
2016-06-29T09:41:13.907Z,125
2016-06-29T09:42:15.155Z,125
2016-06-29T09:43:15.178Z,100
2016-06-29T09:44:15.159Z,120
2016-06-29T09:45:16.432Z,130
2016-06-29T09:46:14.547Z,110
2016-06-29T09:47:15.472Z,125
2016-06-29T09:48:14.600Z,100
2016-06-29T09:49:15.207Z,120
2016-06-29T09:50:15.805Z,135
2016-06-29T09:51:16.365Z,135
2016-06-29T09:52:16.430Z,120
2016-06-29T09:53:15.206Z,135
2016-06-29T09:54:15.237Z,135
2016-06-29T09:55:16.465Z,130
2016-06-29T09:56:16.459Z,125
2016-06-29T09:57:15.274Z,110
2016-06-29T09:58:16.841Z,105
2016-06-29T09:59:15.263Z,140
2016-06-29T10:00:15.381Z,110
2016-06-29T10:01:15.238Z,110
2016-06-29T10:02:16.423Z,125
2016-06-29T10:03:15.292Z,115
2016-06-29T10:04:15.890Z,120
2016-06-29T10:05:15.275Z,110
2016-06-29T10:06:15.881Z,110
2016-06-29T10:07:15.872Z,135
2016-06-29T10:08:16.506Z,140
2016-06-29T10:09:16.682Z,115
2016-06-29T10:10:16.525Z,110
2016-06-29T10:11:15.310Z,100
2016-06-29T10:12:15.921Z,95
2016-06-29T10:13:16.904Z,85
2016-06-29T10:14:15.310Z,90
2016-06-29T10:15:15.934Z,85
2016-06-29T10:16:15.313Z,90
2016-06-29T10:17:15.938Z,80
2016-06-29T10:18:15.931Z,70
2016-06-29T10:19:15.959Z,65
2016-06-29T10:20:17.042Z,65
2016-06-29T10:21:15.978Z,70
2016-06-29T10:22:16.114Z,70
2016-06-29T10:23:16.035Z,100
2016-06-29T10:24:16.015Z,110
2016-06-29T10:25:16.018Z,115
2016-06-29T10:26:16.025Z,105
2016-06-29T10:27:16.013Z,95
2016-06-29T10:28:16.616Z,115
2016-06-29T10:29:15.973Z,115
2016-06-29T10:30:14.791Z,95
2016-06-29T10:31:17.785Z,110
2016-06-29T10:32:15.378Z,95
2016-06-29T10:33:16.507Z,95
2016-06-29T10:34:14.755Z,115
2016-06-29T10:35:15.480Z,125
2016-06-29T10:36:16.640Z,115
2016-06-29T10:37:16.015Z,135
2016-06-29T10:38:16.034Z,110
2016-06-29T10:39:15.419Z,100
2016-06-29T10:40:16.639Z,95
2016-06-29T10:41:16.050Z,100
2016-06-29T10:42:17.096Z,90
2016-06-29T10:43:16.044Z,85
2016-06-29T10:44:16.795Z,80
2016-06-29T10:45:16.055Z,80
2016-06-29T10:46:15.957Z,85
2016-06-29T10:47:16.696Z,90
2016-06-29T10:48:14.889Z,85
2016-06-29T10:49:16.688Z,95
2016-06-29T10:50:15.460Z,95
2016-06-29T10:51:14.841Z,100
2016-06-29T10:52:16.705Z,100
2016-06-29T10:53:16.765Z,90
2016-06-29T10:54:15.503Z,100
2016-06-29T10:55:17.253Z,105
2016-06-29T10:56:16.111Z,110
2016-06-29T10:57:16.420Z,105
2016-06-29T10:58:16.135Z,95
2016-06-29T10:59:16.207Z,105
2016-06-29T11:00:15.518Z,95
2016-06-29T11:01:16.142Z,95
2016-06-29T11:02:14.904Z,95
2016-06-29T11:03:14.906Z,100
2016-06-29T11:04:15.818Z,110
2016-06-29T11:05:16.173Z,125
2016-06-29T11:06:17.759Z,110
2016-06-29T11:07:16.225Z,115
2016-06-29T11:08:17.135Z,100
2016-06-29T11:09:16.831Z,105
2016-06-29T11:10:15.551Z,110
2016-06-29T11:11:16.281Z,105
2016-06-29T11:12:15.583Z,105
2016-06-29T11:13:16.203Z,105
2016-06-29T11:14:16.238Z,115
2016-06-29T11:15:16.558Z,95
2016-06-29T11:16:15.598Z,95
2016-06-29T11:17:16.236Z,100
2016-06-29T11:18:16.854Z,90
2016-06-29T11:19:17.624Z,90
2016-06-29T11:20:15.755Z,95
2016-06-29T11:21:16.537Z,85
2016-06-29T11:22:16.036Z,85
2016-06-29T11:23:16.272Z,80
2016-06-29T11:24:15.645Z,85
2016-06-29T11:25:16.286Z,80
2016-06-29T11:26:17.154Z,75
2016-06-29T11:27:15.731Z,65
2016-06-29T11:28:16.725Z,60
2016-06-29T11:29:16.262Z,60
2016-06-29T11:30:16.362Z,60
2016-06-29T11:31:16.306Z,60
2016-06-29T11:32:16.318Z,55
2016-06-29T11:33:15.680Z,65
2016-06-29T11:34:16.910Z,75
2016-06-29T11:35:15.695Z,75
2016-06-29T11:36:17.246Z,100
2016-06-29T11:37:17.415Z,115
2016-06-29T11:38:15.101Z,115
2016-06-29T11:39:17.054Z,115
2016-06-29T11:40:16.468Z,100
2016-06-29T11:41:16.349Z,110
2016-06-29T11:42:16.418Z,100
2016-06-29T11:43:16.351Z,105
2016-06-29T11:44:15.114Z,105
2016-06-29T11:45:16.990Z,100
2016-06-29T11:46:16.373Z,105
2016-06-29T11:47:16.373Z,115
2016-06-29T11:48:17.589Z,125
2016-06-29T11:49:16.382Z,100
2016-06-29T11:50:17.870Z,105
2016-06-29T11:51:15.791Z,115
2016-06-29T11:52:15.814Z,105
2016-06-29T11:53:16.414Z,105
2016-06-29T11:54:15.831Z,100
2016-06-29T11:55:17.050Z,100
2016-06-29T11:56:15.797Z,105
2016-06-29T11:57:16.471Z,85
2016-06-29T11:58:16.439Z,95
2016-06-29T11:59:17.907Z,100
2016-06-29T12:00:17.098Z,95
2016-06-29T12:01:18.298Z,100
2016-06-29T12:02:16.501Z,100
2016-06-29T12:03:16.483Z,100
2016-06-29T12:04:15.864Z,90
2016-06-29T12:05:15.240Z,90
2016-06-29T12:06:15.863Z,105
2016-06-29T12:07:15.892Z,105
2016-06-29T12:08:15.872Z,105
2016-06-29T12:09:30.717Z,100
2016-06-29T12:10:16.866Z,85
2016-06-29T12:11:16.509Z,75
2016-06-29T12:12:15.902Z,100
2016-06-29T12:13:15.904Z,70
2016-06-29T12:14:15.919Z,70
2016-06-29T12:15:15.950Z,75
2016-06-29T12:16:16.519Z,70
2016-06-29T12:17:16.546Z,65
2016-06-29T12:18:16.543Z,65
2016-06-29T12:19:16.580Z,70
2016-06-29T12:20:15.943Z,70
2016-06-29T12:21:16.754Z,70
2016-06-29T12:22:15.314Z,80
2016-06-29T12:23:16.577Z,90
2016-06-29T12:24:16.563Z,80
2016-06-29T12:25:15.342Z,90
2016-06-29T12:26:17.198Z,80
2016-06-29T12:27:16.577Z,70
2016-06-29T12:28:16.574Z,75
2016-06-29T12:29:17.216Z,85
2016-06-29T12:30:16.655Z,80
2016-06-29T12:31:16.699Z,70
2016-06-29T12:32:17.496Z,70
2016-06-29T12:33:15.992Z,85
2016-06-29T12:34:17.512Z,80
2016-06-29T12:35:17.234Z,70
2016-06-29T12:36:16.654Z,70
2016-06-29T12:37:15.391Z,70
2016-06-29T12:38:17.255Z,65
2016-06-29T12:39:16.059Z,75
2016-06-29T12:40:17.263Z,80
2016-06-29T12:41:16.055Z,80
2016-06-29T12:42:16.695Z,80
2016-06-29T12:43:18.073Z,85
2016-06-29T12:44:17.283Z,80
2016-06-29T12:45:17.072Z,80
2016-06-29T12:46:17.297Z,85
2016-06-29T12:47:16.691Z,80
2016-06-29T12:48:16.730Z,80
2016-06-29T12:49:16.698Z,65
2016-06-29T12:50:16.732Z,70
2016-06-29T12:51:16.731Z,65
2016-06-29T12:52:16.100Z,65
2016-06-29T12:53:16.095Z,70
2016-06-29T12:54:18.655Z,60
2016-06-29T12:55:16.141Z,60
2016-06-29T12:56:17.626Z,65
2016-06-29T12:57:16.351Z,70
2016-06-29T12:58:16.159Z,80
2016-06-29T12:59:17.381Z,80
2016-06-29T13:00:16.770Z,80
2016-06-29T13:01:17.402Z,75
2016-06-29T13:02:16.162Z,80
2016-06-29T13:03:17.713Z,70
2016-06-29T13:04:16.803Z,70
2016-06-29T13:05:16.795Z,70
2016-06-29T13:06:16.799Z,65
2016-06-29T13:07:17.190Z,65
2016-06-29T13:08:16.189Z,65
2016-06-29T13:09:32.400Z,65
2016-06-29T13:10:16.844Z,60
2016-06-29T13:11:15.602Z,60
2016-06-29T13:12:16.864Z,60
2016-06-29T13:13:16.843Z,60
2016-06-29T13:14:18.049Z,65
2016-06-29T13:15:16.235Z,65
2016-06-29T13:16:17.082Z,65
2016-06-29T13:17:16.888Z,65
2016-06-29T13:18:18.296Z,80
2016-06-29T13:19:17.495Z,85
2016-06-29T13:20:16.915Z,80
2016-06-29T13:21:17.531Z,80
2016-06-29T13:22:16.898Z,80
2016-06-29T13:23:17.509Z,75
2016-06-29T13:24:16.924Z,75
2016-06-29T13:25:17.261Z,75
2016-06-29T13:26:15.683Z,70
2016-06-29T13:27:17.534Z,80
2016-06-29T13:28:16.946Z,75
2016-06-29T13:29:18.284Z,70
2016-06-29T13:30:17.843Z,75
2016-06-29T13:31:15.711Z,75
2016-06-29T13:32:18.677Z,70
2016-06-29T13:33:17.609Z,70
2016-06-29T13:34:16.326Z,65
2016-06-29T13:35:17.008Z,65
2016-06-29T13:36:16.358Z,70
2016-06-29T13:37:17.612Z,70
2016-06-29T13:38:16.764Z,65
2016-06-29T13:39:16.403Z,55
2016-06-29T13:40:16.998Z,55
2016-06-29T13:41:17.031Z,55
2016-06-29T13:42:15.785Z,55
2016-06-29T13:43:17.042Z,55
2016-06-29T13:44:16.431Z,55
2016-06-29T13:45:16.531Z,65
2016-06-29T13:46:17.666Z,60
2016-06-29T13:47:15.832Z,60
2016-06-29T13:48:17.694Z,65
2016-06-29T13:49:18.415Z,65
2016-06-29T13:50:17.684Z,80
2016-06-29T13:51:16.881Z,70
2016-06-29T13:52:16.462Z,65
2016-06-29T13:53:17.087Z,65
2016-06-29T13:54:17.096Z,65
2016-06-29T13:55:17.709Z,70
2016-06-29T13:56:17.088Z,70
2016-06-29T13:57:17.726Z,75
2016-06-29T13:58:16.514Z,75
2016-06-29T13:59:16.497Z,65
2016-06-29T14:00:17.793Z,65
2016-06-29T14:01:16.509Z,65
2016-06-29T14:02:18.047Z,65
2016-06-29T14:03:16.543Z,65
2016-06-29T14:04:17.155Z,70
2016-06-29T14:05:17.138Z,65
2016-06-29T14:06:16.566Z,65
2016-06-29T14:07:17.398Z,65
2016-06-29T14:08:17.244Z,60
2016-06-29T14:09:16.582Z,60
2016-06-29T14:10:16.591Z,55
2016-06-29T14:11:18.471Z,55
2016-06-29T14:12:16.561Z,55
2016-06-29T14:13:15.936Z,55